sensor_id;sensor_type;location;lat;lon;timestamp;P1;durP1;ratioP1;P2;durP2;ratioP2
46721;SDS011;32455;43.430;23.136;2022-10-16T00:00:27;5.30;;;3.28;;
46721;SDS011;32455;43.430;23.136;2022-10-16T00:03:12;7.05;;;3.38;;
46721;SDS011;32455;43.430;23.136;2022-10-16T00:05:58;4.22;;;3.10;;
46721;SDS011;32455;43.430;23.136;2022-10-16T00:08:45;4.35;;;3.17;;
46721;SDS011;32455;43.430;23.136;2022-10-16T00:11:35;5.30;;;3.53;;
46721;SDS011;32455;43.430;23.136;2022-10-16T00:14:22;4.60;;;3.13;;
46721;SDS011;32455;43.430;23.136;2022-10-16T00:17:07;4.53;;;3.88;;
46721;SDS011;32455;43.430;23.136;2022-10-16T00:19:53;5.43;;;3.58;;
46721;SDS011;32455;43.430;23.136;2022-10-16T00:22:38;3.90;;;3.00;;
46721;SDS011;32455;43.430;23.136;2022-10-16T00:25:24;8.23;;;3.70;;
46721;SDS011;32455;43.430;23.136;2022-10-16T00:28:10;6.53;;;3.50;;
46721;SDS011;32455;43.430;23.136;2022-10-16T00:30:55;6.60;;;3.53;;
46721;SDS011;32455;43.430;23.136;2022-10-16T00:33:41;3.67;;;3.22;;
46721;SDS011;32455;43.430;23.136;2022-10-16T00:36:27;3.85;;;3.00;;
46721;SDS011;32455;43.430;23.136;2022-10-16T00:39:12;4.60;;;3.03;;
46721;SDS011;32455;43.430;23.136;2022-10-16T00:41:57;3.13;;;2.85;;
46721;SDS011;32455;43.430;23.136;2022-10-16T00:44:50;3.65;;;3.25;;
46721;SDS011;32455;43.430;23.136;2022-10-16T00:47:40;3.42;;;3.00;;
46721;SDS011;32455;43.430;23.136;2022-10-16T00:50:32;3.30;;;2.95;;
46721;SDS011;32455;43.430;23.136;2022-10-16T00:53:28;4.00;;;3.28;;
46721;SDS011;32455;43.430;23.136;2022-10-16T00:56:18;4.72;;;3.20;;
46721;SDS011;32455;43.430;23.136;2022-10-16T01:02:21;7.55;;;3.05;;
46721;SDS011;32455;43.430;23.136;2022-10-16T01:05:10;4.80;;;3.30;;
46721;SDS011;32455;43.430;23.136;2022-10-16T01:07:57;4.13;;;3.10;;
46721;SDS011;32455;43.430;23.136;2022-10-16T01:11:11;5.25;;;3.63;;
46721;SDS011;32455;43.430;23.136;2022-10-16T01:14:11;6.95;;;3.35;;
46721;SDS011;32455;43.430;23.136;2022-10-16T01:20:26;3.53;;;2.95;;
46721;SDS011;32455;43.430;23.136;2022-10-16T01:23:21;6.00;;;3.38;;
46721;SDS011;32455;43.430;23.136;2022-10-16T01:29:18;4.00;;;3.33;;
46721;SDS011;32455;43.430;23.136;2022-10-16T01:35:14;5.65;;;3.05;;
46721;SDS011;32455;43.430;23.136;2022-10-16T01:38:10;4.22;;;3.42;;
46721;SDS011;32455;43.430;23.136;2022-10-16T01:43:57;4.43;;;3.92;;
46721;SDS011;32455;43.430;23.136;2022-10-16T01:46:50;5.20;;;3.97;;
46721;SDS011;32455;43.430;23.136;2022-10-16T01:49:37;4.70;;;4.00;;
46721;SDS011;32455;43.430;23.136;2022-10-16T01:52:26;5.00;;;4.50;;
46721;SDS011;32455;43.430;23.136;2022-10-16T01:55:14;4.63;;;4.22;;
46721;SDS011;32455;43.430;23.136;2022-10-16T01:58:04;5.38;;;4.70;;
46721;SDS011;32455;43.430;23.136;2022-10-16T02:00:53;4.25;;;3.67;;
46721;SDS011;32455;43.430;23.136;2022-10-16T02:03:40;4.43;;;3.67;;
46721;SDS011;32455;43.430;23.136;2022-10-16T02:06:28;3.55;;;3.17;;
46721;SDS011;32455;43.430;23.136;2022-10-16T02:09:14;4.10;;;3.10;;
46721;SDS011;32455;43.430;23.136;2022-10-16T02:12:11;5.00;;;3.40;;
46721;SDS011;32455;43.430;23.136;2022-10-16T02:15:01;3.58;;;3.28;;
46721;SDS011;32455;43.430;23.136;2022-10-16T02:17:47;4.63;;;3.15;;
46721;SDS011;32455;43.430;23.136;2022-10-16T02:20:34;4.72;;;2.97;;
46721;SDS011;32455;43.430;23.136;2022-10-16T02:29:41;4.55;;;4.00;;
46721;SDS011;32455;43.430;23.136;2022-10-16T02:32:32;4.10;;;3.67;;
46721;SDS011;32455;43.430;23.136;2022-10-16T02:35:21;3.75;;;3.35;;
46721;SDS011;32455;43.430;23.136;2022-10-16T02:38:08;4.05;;;3.35;;
46721;SDS011;32455;43.430;23.136;2022-10-16T02:40:54;3.75;;;3.15;;
46721;SDS011;32455;43.430;23.136;2022-10-16T02:43:39;3.40;;;3.10;;
46721;SDS011;32455;43.430;23.136;2022-10-16T02:46:24;4.68;;;3.47;;
46721;SDS011;32455;43.430;23.136;2022-10-16T02:49:09;4.97;;;3.47;;
46721;SDS011;32455;43.430;23.136;2022-10-16T02:51:54;5.45;;;3.88;;
46721;SDS011;32455;43.430;23.136;2022-10-16T02:54:40;6.07;;;4.03;;
46721;SDS011;32455;43.430;23.136;2022-10-16T02:57:25;4.47;;;3.13;;
46721;SDS011;32455;43.430;23.136;2022-10-16T03:00:12;4.22;;;3.03;;
46721;SDS011;32455;43.430;23.136;2022-10-16T03:02:59;5.00;;;3.15;;
46721;SDS011;32455;43.430;23.136;2022-10-16T03:05:44;5.95;;;2.92;;
46721;SDS011;32455;43.430;23.136;2022-10-16T03:08:32;3.30;;;2.95;;
46721;SDS011;32455;43.430;23.136;2022-10-16T03:11:18;3.88;;;3.15;;
46721;SDS011;32455;43.430;23.136;2022-10-16T03:14:03;5.05;;;3.25;;
46721;SDS011;32455;43.430;23.136;2022-10-16T03:16:49;4.13;;;3.60;;
46721;SDS011;32455;43.430;23.136;2022-10-16T03:19:34;5.28;;;3.40;;
46721;SDS011;32455;43.430;23.136;2022-10-16T03:22:20;8.27;;;3.58;;
46721;SDS011;32455;43.430;23.136;2022-10-16T03:25:05;5.28;;;3.83;;
46721;SDS011;32455;43.430;23.136;2022-10-16T03:27:51;3.60;;;3.25;;
46721;SDS011;32455;43.430;23.136;2022-10-16T03:30:37;5.05;;;3.70;;
46721;SDS011;32455;43.430;23.136;2022-10-16T03:33:24;4.15;;;3.20;;
46721;SDS011;32455;43.430;23.136;2022-10-16T03:36:09;4.43;;;3.25;;
46721;SDS011;32455;43.430;23.136;2022-10-16T03:38:55;3.60;;;2.92;;
46721;SDS011;32455;43.430;23.136;2022-10-16T03:41:40;5.53;;;3.20;;
46721;SDS011;32455;43.430;23.136;2022-10-16T03:44:25;3.58;;;3.25;;
46721;SDS011;32455;43.430;23.136;2022-10-16T03:47:11;3.38;;;2.85;;
46721;SDS011;32455;43.430;23.136;2022-10-16T03:49:56;6.20;;;3.00;;
46721;SDS011;32455;43.430;23.136;2022-10-16T03:52:42;3.78;;;3.38;;
46721;SDS011;32455;43.430;23.136;2022-10-16T03:55:27;3.63;;;3.33;;
46721;SDS011;32455;43.430;23.136;2022-10-16T03:58:13;4.30;;;3.25;;
46721;SDS011;32455;43.430;23.136;2022-10-16T04:00:59;5.20;;;2.88;;
46721;SDS011;32455;43.430;23.136;2022-10-16T04:03:44;3.10;;;2.58;;
46721;SDS011;32455;43.430;23.136;2022-10-16T04:06:30;4.03;;;2.85;;
46721;SDS011;32455;43.430;23.136;2022-10-16T04:09:15;3.75;;;3.03;;
46721;SDS011;32455;43.430;23.136;2022-10-16T04:12:01;3.75;;;3.05;;
46721;SDS011;32455;43.430;23.136;2022-10-16T04:14:46;4.47;;;3.63;;
46721;SDS011;32455;43.430;23.136;2022-10-16T04:17:31;4.30;;;3.08;;
46721;SDS011;32455;43.430;23.136;2022-10-16T04:20:16;3.70;;;2.97;;
46721;SDS011;32455;43.430;23.136;2022-10-16T04:23:02;3.17;;;2.88;;
46721;SDS011;32455;43.430;23.136;2022-10-16T04:25:48;4.00;;;3.05;;
46721;SDS011;32455;43.430;23.136;2022-10-16T04:28:32;3.40;;;3.10;;
46721;SDS011;32455;43.430;23.136;2022-10-16T04:31:17;5.20;;;2.90;;
46721;SDS011;32455;43.430;23.136;2022-10-16T04:34:03;3.72;;;3.40;;
46721;SDS011;32455;43.430;23.136;2022-10-16T04:36:48;5.88;;;3.10;;
46721;SDS011;32455;43.430;23.136;2022-10-16T04:39:34;4.72;;;4.10;;
46721;SDS011;32455;43.430;23.136;2022-10-16T04:42:20;4.00;;;3.20;;
46721;SDS011;32455;43.430;23.136;2022-10-16T04:45:05;3.95;;;3.45;;
46721;SDS011;32455;43.430;23.136;2022-10-16T04:47:52;3.53;;;2.97;;
46721;SDS011;32455;43.430;23.136;2022-10-16T04:50:37;21.67;;;14.73;;
46721;SDS011;32455;43.430;23.136;2022-10-16T04:53:23;25.05;;;22.23;;
46721;SDS011;32455;43.430;23.136;2022-10-16T04:56:09;19.05;;;16.02;;
46721;SDS011;32455;43.430;23.136;2022-10-16T04:58:54;22.10;;;17.17;;
46721;SDS011;32455;43.430;23.136;2022-10-16T05:01:40;11.05;;;9.68;;
46721;SDS011;32455;43.430;23.136;2022-10-16T05:04:25;12.73;;;11.02;;
46721;SDS011;32455;43.430;23.136;2022-10-16T05:07:10;10.38;;;8.50;;
46721;SDS011;32455;43.430;23.136;2022-10-16T05:09:56;8.32;;;5.90;;
46721;SDS011;32455;43.430;23.136;2022-10-16T05:12:41;7.22;;;5.97;;
46721;SDS011;32455;43.430;23.136;2022-10-16T05:15:26;7.25;;;6.60;;
46721;SDS011;32455;43.430;23.136;2022-10-16T05:18:11;9.93;;;5.53;;
46721;SDS011;32455;43.430;23.136;2022-10-16T05:20:56;13.30;;;7.25;;
46721;SDS011;32455;43.430;23.136;2022-10-16T05:23:42;8.80;;;6.28;;
46721;SDS011;32455;43.430;23.136;2022-10-16T05:26:28;9.23;;;7.18;;
46721;SDS011;32455;43.430;23.136;2022-10-16T05:29:14;9.45;;;6.72;;
46721;SDS011;32455;43.430;23.136;2022-10-16T05:31:59;14.07;;;9.10;;
46721;SDS011;32455;43.430;23.136;2022-10-16T05:34:46;19.40;;;10.55;;
46721;SDS011;32455;43.430;23.136;2022-10-16T05:37:31;24.90;;;12.70;;
46721;SDS011;32455;43.430;23.136;2022-10-16T05:40:16;13.00;;;8.00;;
46721;SDS011;32455;43.430;23.136;2022-10-16T05:43:03;12.77;;;7.50;;
46721;SDS011;32455;43.430;23.136;2022-10-16T05:45:57;5.90;;;4.78;;
46721;SDS011;32455;43.430;23.136;2022-10-16T05:48:45;4.95;;;3.65;;
46721;SDS011;32455;43.430;23.136;2022-10-16T05:51:31;4.30;;;3.75;;
46721;SDS011;32455;43.430;23.136;2022-10-16T05:54:16;5.57;;;3.75;;
46721;SDS011;32455;43.430;23.136;2022-10-16T05:57:02;5.60;;;3.80;;
46721;SDS011;32455;43.430;23.136;2022-10-16T05:59:50;5.38;;;4.15;;
46721;SDS011;32455;43.430;23.136;2022-10-16T06:02:35;4.72;;;3.78;;
46721;SDS011;32455;43.430;23.136;2022-10-16T06:05:20;7.95;;;4.43;;
46721;SDS011;32455;43.430;23.136;2022-10-16T06:08:06;8.35;;;6.28;;
46721;SDS011;32455;43.430;23.136;2022-10-16T06:11:02;6.50;;;5.57;;
46721;SDS011;32455;43.430;23.136;2022-10-16T06:13:50;7.13;;;5.82;;
46721;SDS011;32455;43.430;23.136;2022-10-16T06:16:36;13.40;;;6.75;;
46721;SDS011;32455;43.430;23.136;2022-10-16T06:19:23;7.43;;;6.28;;
46721;SDS011;32455;43.430;23.136;2022-10-16T06:22:07;13.82;;;7.15;;
46721;SDS011;32455;43.430;23.136;2022-10-16T06:24:52;9.30;;;6.60;;
46721;SDS011;32455;43.430;23.136;2022-10-16T06:27:41;11.55;;;6.28;;
46721;SDS011;32455;43.430;23.136;2022-10-16T06:30:26;11.25;;;6.95;;
46721;SDS011;32455;43.430;23.136;2022-10-16T06:33:12;9.30;;;5.60;;
46721;SDS011;32455;43.430;23.136;2022-10-16T06:36:05;7.07;;;5.90;;
46721;SDS011;32455;43.430;23.136;2022-10-16T06:38:53;9.48;;;6.90;;
46721;SDS011;32455;43.430;23.136;2022-10-16T06:41:38;10.27;;;6.80;;
46721;SDS011;32455;43.430;23.136;2022-10-16T06:44:24;7.93;;;6.00;;
46721;SDS011;32455;43.430;23.136;2022-10-16T06:47:09;7.93;;;6.10;;
46721;SDS011;32455;43.430;23.136;2022-10-16T06:49:55;7.93;;;5.60;;
46721;SDS011;32455;43.430;23.136;2022-10-16T06:52:40;10.00;;;5.60;;
46721;SDS011;32455;43.430;23.136;2022-10-16T06:55:25;9.45;;;6.18;;
46721;SDS011;32455;43.430;23.136;2022-10-16T06:58:10;9.20;;;5.43;;
46721;SDS011;32455;43.430;23.136;2022-10-16T07:00:56;5.32;;;4.82;;
46721;SDS011;32455;43.430;23.136;2022-10-16T07:03:42;7.68;;;5.53;;
46721;SDS011;32455;43.430;23.136;2022-10-16T07:06:30;7.13;;;5.38;;
46721;SDS011;32455;43.430;23.136;2022-10-16T07:09:17;13.82;;;5.25;;
46721;SDS011;32455;43.430;23.136;2022-10-16T07:12:02;6.18;;;4.78;;
46721;SDS011;32455;43.430;23.136;2022-10-16T07:14:48;5.18;;;4.68;;
46721;SDS011;32455;43.430;23.136;2022-10-16T07:17:36;6.53;;;4.97;;
46721;SDS011;32455;43.430;23.136;2022-10-16T07:20:22;6.10;;;4.65;;
46721;SDS011;32455;43.430;23.136;2022-10-16T07:23:07;6.28;;;4.47;;
46721;SDS011;32455;43.430;23.136;2022-10-16T07:25:56;7.43;;;4.05;;
46721;SDS011;32455;43.430;23.136;2022-10-16T07:28:42;6.00;;;4.40;;
46721;SDS011;32455;43.430;23.136;2022-10-16T07:31:28;6.32;;;4.07;;
46721;SDS011;32455;43.430;23.136;2022-10-16T07:34:15;4.53;;;3.63;;
46721;SDS011;32455;43.430;23.136;2022-10-16T07:37:02;6.93;;;4.55;;
46721;SDS011;32455;43.430;23.136;2022-10-16T07:39:48;5.03;;;4.32;;
46721;SDS011;32455;43.430;23.136;2022-10-16T07:42:33;6.72;;;4.70;;
46721;SDS011;32455;43.430;23.136;2022-10-16T07:45:19;5.15;;;3.85;;
46721;SDS011;32455;43.430;23.136;2022-10-16T07:48:05;5.55;;;4.20;;
46721;SDS011;32455;43.430;23.136;2022-10-16T07:50:50;4.95;;;4.22;;
46721;SDS011;32455;43.430;23.136;2022-10-16T07:53:36;6.88;;;4.10;;
46721;SDS011;32455;43.430;23.136;2022-10-16T07:56:22;6.43;;;3.88;;
46721;SDS011;32455;43.430;23.136;2022-10-16T07:59:07;4.68;;;3.80;;
46721;SDS011;32455;43.430;23.136;2022-10-16T08:01:53;8.00;;;4.20;;
46721;SDS011;32455;43.430;23.136;2022-10-16T08:04:38;6.88;;;4.07;;
46721;SDS011;32455;43.430;23.136;2022-10-16T08:07:23;4.60;;;3.17;;
46721;SDS011;32455;43.430;23.136;2022-10-16T08:10:17;4.93;;;4.07;;
46721;SDS011;32455;43.430;23.136;2022-10-16T08:13:04;8.02;;;3.67;;
46721;SDS011;32455;43.430;23.136;2022-10-16T08:15:49;8.10;;;3.92;;
46721;SDS011;32455;43.430;23.136;2022-10-16T08:18:34;6.93;;;3.83;;
46721;SDS011;32455;43.430;23.136;2022-10-16T08:21:22;6.38;;;3.97;;
46721;SDS011;32455;43.430;23.136;2022-10-16T08:24:08;7.72;;;3.33;;
46721;SDS011;32455;43.430;23.136;2022-10-16T08:26:53;5.70;;;3.13;;
46721;SDS011;32455;43.430;23.136;2022-10-16T08:29:39;5.07;;;3.17;;
46721;SDS011;32455;43.430;23.136;2022-10-16T08:32:24;4.35;;;3.67;;
46721;SDS011;32455;43.430;23.136;2022-10-16T08:35:10;5.85;;;3.50;;
46721;SDS011;32455;43.430;23.136;2022-10-16T08:37:56;9.13;;;3.97;;
46721;SDS011;32455;43.430;23.136;2022-10-16T08:40:45;5.07;;;3.97;;
46721;SDS011;32455;43.430;23.136;2022-10-16T08:50:09;8.07;;;3.95;;
46721;SDS011;32455;43.430;23.136;2022-10-16T08:52:58;4.30;;;3.80;;
46721;SDS011;32455;43.430;23.136;2022-10-16T08:55:55;6.90;;;4.13;;
46721;SDS011;32455;43.430;23.136;2022-10-16T08:58:41;7.63;;;4.55;;
46721;SDS011;32455;43.430;23.136;2022-10-16T09:01:49;6.10;;;3.85;;
46721;SDS011;32455;43.430;23.136;2022-10-16T09:23:41;4.93;;;3.55;;
46721;SDS011;32455;43.430;23.136;2022-10-16T09:26:28;7.30;;;3.53;;
46721;SDS011;32455;43.430;23.136;2022-10-16T09:29:17;6.30;;;4.00;;
46721;SDS011;32455;43.430;23.136;2022-10-16T09:32:11;5.75;;;3.85;;
46721;SDS011;32455;43.430;23.136;2022-10-16T09:34:59;4.90;;;3.47;;
46721;SDS011;32455;43.430;23.136;2022-10-16T09:37:45;6.47;;;3.78;;
46721;SDS011;32455;43.430;23.136;2022-10-16T09:40:37;4.68;;;3.40;;
46721;SDS011;32455;43.430;23.136;2022-10-16T09:46:34;5.88;;;3.88;;
46721;SDS011;32455;43.430;23.136;2022-10-16T09:49:25;4.55;;;3.50;;
46721;SDS011;32455;43.430;23.136;2022-10-16T09:52:12;5.70;;;3.70;;
46721;SDS011;32455;43.430;23.136;2022-10-16T09:55:00;4.97;;;4.20;;
46721;SDS011;32455;43.430;23.136;2022-10-16T09:58:11;8.32;;;3.90;;
46721;SDS011;32455;43.430;23.136;2022-10-16T10:01:00;4.30;;;3.13;;
46721;SDS011;32455;43.430;23.136;2022-10-16T10:03:46;5.97;;;3.90;;
46721;SDS011;32455;43.430;23.136;2022-10-16T10:06:34;5.78;;;4.32;;
46721;SDS011;32455;43.430;23.136;2022-10-16T10:12:23;3.90;;;3.55;;
46721;SDS011;32455;43.430;23.136;2022-10-16T10:15:13;4.43;;;3.28;;
46721;SDS011;32455;43.430;23.136;2022-10-16T10:18:19;7.20;;;3.25;;
46721;SDS011;32455;43.430;23.136;2022-10-16T10:21:12;4.63;;;3.20;;
46721;SDS011;32455;43.430;23.136;2022-10-16T10:24:00;4.57;;;3.40;;
46721;SDS011;32455;43.430;23.136;2022-10-16T10:26:56;4.75;;;3.33;;
46721;SDS011;32455;43.430;23.136;2022-10-16T10:39:36;5.78;;;3.08;;
46721;SDS011;32455;43.430;23.136;2022-10-16T10:42:34;3.90;;;3.20;;
46721;SDS011;32455;43.430;23.136;2022-10-16T10:45:38;3.80;;;3.25;;
46721;SDS011;32455;43.430;23.136;2022-10-16T10:48:42;5.65;;;3.90;;
46721;SDS011;32455;43.430;23.136;2022-10-16T10:54:48;5.05;;;2.90;;
46721;SDS011;32455;43.430;23.136;2022-10-16T11:01:01;4.53;;;3.45;;
46721;SDS011;32455;43.430;23.136;2022-10-16T11:04:19;4.40;;;2.78;;
46721;SDS011;32455;43.430;23.136;2022-10-16T11:07:27;10.20;;;2.90;;
46721;SDS011;32455;43.430;23.136;2022-10-16T11:10:19;3.57;;;3.07;;
46721;SDS011;32455;43.430;23.136;2022-10-16T11:16:19;4.70;;;2.72;;
46721;SDS011;32455;43.430;23.136;2022-10-16T11:25:31;4.13;;;3.33;;
46721;SDS011;32455;43.430;23.136;2022-10-16T11:28:22;3.13;;;2.40;;
46721;SDS011;32455;43.430;23.136;2022-10-16T11:34:36;8.05;;;3.78;;
46721;SDS011;32455;43.430;23.136;2022-10-16T11:37:30;7.25;;;3.28;;
46721;SDS011;32455;43.430;23.136;2022-10-16T11:40:27;4.97;;;4.22;;
46721;SDS011;32455;43.430;23.136;2022-10-16T11:43:22;4.30;;;2.97;;
46721;SDS011;32455;43.430;23.136;2022-10-16T11:46:15;4.68;;;3.17;;
46721;SDS011;32455;43.430;23.136;2022-10-16T11:49:14;6.25;;;2.75;;
46721;SDS011;32455;43.430;23.136;2022-10-16T11:52:12;4.63;;;3.08;;
46721;SDS011;32455;43.430;23.136;2022-10-16T11:55:17;4.35;;;3.00;;
46721;SDS011;32455;43.430;23.136;2022-10-16T11:58:09;7.72;;;3.03;;
46721;SDS011;32455;43.430;23.136;2022-10-16T12:01:21;4.25;;;3.25;;
46721;SDS011;32455;43.430;23.136;2022-10-16T12:07:24;5.00;;;2.88;;
46721;SDS011;32455;43.430;23.136;2022-10-16T12:10:22;4.95;;;3.10;;
46721;SDS011;32455;43.430;23.136;2022-10-16T12:16:22;4.15;;;2.80;;
46721;SDS011;32455;43.430;23.136;2022-10-16T12:19:13;4.68;;;2.85;;
46721;SDS011;32455;43.430;23.136;2022-10-16T12:22:01;5.23;;;3.23;;
46721;SDS011;32455;43.430;23.136;2022-10-16T12:24:51;5.43;;;3.03;;
46721;SDS011;32455;43.430;23.136;2022-10-16T12:27:37;5.20;;;3.38;;
46721;SDS011;32455;43.430;23.136;2022-10-16T12:30:24;5.97;;;3.40;;
46721;SDS011;32455;43.430;23.136;2022-10-16T12:33:31;6.93;;;3.33;;
46721;SDS011;32455;43.430;23.136;2022-10-16T12:36:30;3.55;;;2.83;;
46721;SDS011;32455;43.430;23.136;2022-10-16T12:39:24;3.97;;;2.78;;
46721;SDS011;32455;43.430;23.136;2022-10-16T12:42:31;3.85;;;2.67;;
46721;SDS011;32455;43.430;23.136;2022-10-16T12:45:31;5.68;;;3.17;;
46721;SDS011;32455;43.430;23.136;2022-10-16T12:48:19;3.75;;;2.88;;
46721;SDS011;32455;43.430;23.136;2022-10-16T13:12:39;4.03;;;2.88;;
46721;SDS011;32455;43.430;23.136;2022-10-16T13:15:49;3.40;;;2.50;;
46721;SDS011;32455;43.430;23.136;2022-10-16T13:19:08;3.03;;;2.70;;
46721;SDS011;32455;43.430;23.136;2022-10-16T13:26:01;3.30;;;2.28;;
46721;SDS011;32455;43.430;23.136;2022-10-16T13:29:00;4.15;;;2.65;;
46721;SDS011;32455;43.430;23.136;2022-10-16T13:31:47;3.40;;;2.42;;
46721;SDS011;32455;43.430;23.136;2022-10-16T13:34:41;3.83;;;2.92;;
46721;SDS011;32455;43.430;23.136;2022-10-16T13:37:34;2.80;;;2.50;;
46721;SDS011;32455;43.430;23.136;2022-10-16T13:40:22;3.53;;;2.58;;
46721;SDS011;32455;43.430;23.136;2022-10-16T13:43:08;2.88;;;2.38;;
46721;SDS011;32455;43.430;23.136;2022-10-16T13:46:04;4.10;;;2.58;;
46721;SDS011;32455;43.430;23.136;2022-10-16T13:49:21;3.67;;;2.97;;
46721;SDS011;32455;43.430;23.136;2022-10-16T13:52:16;3.72;;;2.38;;
46721;SDS011;32455;43.430;23.136;2022-10-16T13:55:10;4.13;;;2.50;;
46721;SDS011;32455;43.430;23.136;2022-10-16T13:58:12;2.92;;;2.60;;
46721;SDS011;32455;43.430;23.136;2022-10-16T14:01:00;4.30;;;2.08;;
46721;SDS011;32455;43.430;23.136;2022-10-16T14:03:47;2.45;;;2.22;;
46721;SDS011;32455;43.430;23.136;2022-10-16T14:06:34;3.35;;;2.47;;
46721;SDS011;32455;43.430;23.136;2022-10-16T14:09:23;2.83;;;2.50;;
46721;SDS011;32455;43.430;23.136;2022-10-16T14:12:11;2.85;;;2.55;;
46721;SDS011;32455;43.430;23.136;2022-10-16T14:14:57;3.88;;;2.92;;
46721;SDS011;32455;43.430;23.136;2022-10-16T14:17:45;4.32;;;3.05;;
46721;SDS011;32455;43.430;23.136;2022-10-16T14:20:44;3.25;;;2.53;;
46721;SDS011;32455;43.430;23.136;2022-10-16T14:23:36;3.38;;;2.60;;
46721;SDS011;32455;43.430;23.136;2022-10-16T14:26:24;2.60;;;2.35;;
46721;SDS011;32455;43.430;23.136;2022-10-16T14:29:13;3.17;;;2.47;;
46721;SDS011;32455;43.430;23.136;2022-10-16T14:32:04;3.88;;;2.60;;
46721;SDS011;32455;43.430;23.136;2022-10-16T14:34:53;3.80;;;2.80;;
46721;SDS011;32455;43.430;23.136;2022-10-16T14:37:39;5.28;;;2.95;;
46721;SDS011;32455;43.430;23.136;2022-10-16T14:40:25;3.88;;;2.60;;
46721;SDS011;32455;43.430;23.136;2022-10-16T14:43:28;3.95;;;2.78;;
46721;SDS011;32455;43.430;23.136;2022-10-16T14:46:33;2.83;;;2.50;;
46721;SDS011;32455;43.430;23.136;2022-10-16T14:49:21;4.20;;;2.75;;
46721;SDS011;32455;43.430;23.136;2022-10-16T14:52:11;2.47;;;2.28;;
46721;SDS011;32455;43.430;23.136;2022-10-16T14:54:57;6.38;;;2.78;;
46721;SDS011;32455;43.430;23.136;2022-10-16T14:57:43;4.90;;;2.30;;
46721;SDS011;32455;43.430;23.136;2022-10-16T15:00:29;6.20;;;2.75;;
46721;SDS011;32455;43.430;23.136;2022-10-16T15:03:15;3.17;;;2.65;;
46721;SDS011;32455;43.430;23.136;2022-10-16T15:06:00;3.85;;;2.67;;
46721;SDS011;32455;43.430;23.136;2022-10-16T15:08:45;5.70;;;2.90;;
46721;SDS011;32455;43.430;23.136;2022-10-16T15:11:31;3.00;;;2.13;;
46721;SDS011;32455;43.430;23.136;2022-10-16T15:14:17;3.95;;;2.80;;
46721;SDS011;32455;43.430;23.136;2022-10-16T15:17:03;4.65;;;2.60;;
46721;SDS011;32455;43.430;23.136;2022-10-16T15:19:48;2.88;;;2.58;;
46721;SDS011;32455;43.430;23.136;2022-10-16T15:22:33;5.85;;;3.20;;
46721;SDS011;32455;43.430;23.136;2022-10-16T15:25:35;3.53;;;3.03;;
46721;SDS011;32455;43.430;23.136;2022-10-16T15:28:26;4.15;;;3.10;;
46721;SDS011;32455;43.430;23.136;2022-10-16T15:31:12;3.03;;;2.53;;
46721;SDS011;32455;43.430;23.136;2022-10-16T15:33:58;3.88;;;3.08;;
46721;SDS011;32455;43.430;23.136;2022-10-16T15:36:49;3.97;;;3.30;;
46721;SDS011;32455;43.430;23.136;2022-10-16T15:39:35;8.77;;;4.88;;
46721;SDS011;32455;43.430;23.136;2022-10-16T15:42:21;9.68;;;6.53;;
46721;SDS011;32455;43.430;23.136;2022-10-16T15:45:06;14.35;;;10.40;;
46721;SDS011;32455;43.430;23.136;2022-10-16T15:47:51;13.15;;;9.30;;
46721;SDS011;32455;43.430;23.136;2022-10-16T15:50:37;14.13;;;7.95;;
46721;SDS011;32455;43.430;23.136;2022-10-16T15:53:23;28.08;;;21.38;;
46721;SDS011;32455;43.430;23.136;2022-10-16T15:56:09;11.77;;;9.05;;
46721;SDS011;32455;43.430;23.136;2022-10-16T15:58:55;9.88;;;6.85;;
46721;SDS011;32455;43.430;23.136;2022-10-16T16:01:43;27.92;;;14.95;;
46721;SDS011;32455;43.430;23.136;2022-10-16T16:04:31;11.25;;;7.20;;
46721;SDS011;32455;43.430;23.136;2022-10-16T16:07:17;8.20;;;6.13;;
46721;SDS011;32455;43.430;23.136;2022-10-16T16:10:03;11.63;;;6.53;;
46721;SDS011;32455;43.430;23.136;2022-10-16T16:12:50;14.02;;;6.30;;
46721;SDS011;32455;43.430;23.136;2022-10-16T16:15:40;10.52;;;5.22;;
46721;SDS011;32455;43.430;23.136;2022-10-16T16:18:26;6.90;;;4.47;;
46721;SDS011;32455;43.430;23.136;2022-10-16T16:21:13;7.03;;;4.85;;
46721;SDS011;32455;43.430;23.136;2022-10-16T16:23:58;7.70;;;4.85;;
46721;SDS011;32455;43.430;23.136;2022-10-16T16:26:43;9.57;;;6.05;;
46721;SDS011;32455;43.430;23.136;2022-10-16T16:29:28;11.18;;;7.18;;
46721;SDS011;32455;43.430;23.136;2022-10-16T16:32:14;8.05;;;6.25;;
46721;SDS011;32455;43.430;23.136;2022-10-16T16:35:00;8.25;;;4.55;;
46721;SDS011;32455;43.430;23.136;2022-10-16T16:37:47;9.10;;;7.00;;
46721;SDS011;32455;43.430;23.136;2022-10-16T16:40:33;14.30;;;8.13;;
46721;SDS011;32455;43.430;23.136;2022-10-16T16:43:18;8.02;;;6.72;;
46721;SDS011;32455;43.430;23.136;2022-10-16T16:46:07;8.57;;;7.03;;
46721;SDS011;32455;43.430;23.136;2022-10-16T16:48:53;12.05;;;8.82;;
46721;SDS011;32455;43.430;23.136;2022-10-16T16:51:40;17.98;;;9.43;;
46721;SDS011;32455;43.430;23.136;2022-10-16T16:54:25;16.33;;;8.95;;
46721;SDS011;32455;43.430;23.136;2022-10-16T16:57:10;21.88;;;11.25;;
46721;SDS011;32455;43.430;23.136;2022-10-16T16:59:55;19.45;;;11.50;;
46721;SDS011;32455;43.430;23.136;2022-10-16T17:02:40;20.17;;;11.82;;
46721;SDS011;32455;43.430;23.136;2022-10-16T17:05:28;14.65;;;8.52;;
46721;SDS011;32455;43.430;23.136;2022-10-16T17:08:13;17.65;;;10.98;;
46721;SDS011;32455;43.430;23.136;2022-10-16T17:10:59;19.95;;;10.30;;
46721;SDS011;32455;43.430;23.136;2022-10-16T17:13:45;18.65;;;11.90;;
46721;SDS011;32455;43.430;23.136;2022-10-16T17:16:32;26.55;;;16.05;;
46721;SDS011;32455;43.430;23.136;2022-10-16T17:19:19;30.58;;;17.60;;
46721;SDS011;32455;43.430;23.136;2022-10-16T17:22:05;11.20;;;8.55;;
46721;SDS011;32455;43.430;23.136;2022-10-16T17:24:51;7.90;;;6.22;;
46721;SDS011;32455;43.430;23.136;2022-10-16T17:27:38;11.35;;;6.00;;
46721;SDS011;32455;43.430;23.136;2022-10-16T17:30:23;6.13;;;4.50;;
46721;SDS011;32455;43.430;23.136;2022-10-16T17:33:09;7.38;;;6.40;;
46721;SDS011;32455;43.430;23.136;2022-10-16T17:35:55;8.07;;;5.90;;
46721;SDS011;32455;43.430;23.136;2022-10-16T17:38:44;7.25;;;5.88;;
46721;SDS011;32455;43.430;23.136;2022-10-16T17:41:29;8.15;;;5.63;;
46721;SDS011;32455;43.430;23.136;2022-10-16T17:44:15;14.60;;;7.90;;
46721;SDS011;32455;43.430;23.136;2022-10-16T17:47:04;20.98;;;11.48;;
46721;SDS011;32455;43.430;23.136;2022-10-16T17:49:50;36.33;;;16.25;;
46721;SDS011;32455;43.430;23.136;2022-10-16T17:52:36;38.75;;;17.15;;
46721;SDS011;32455;43.430;23.136;2022-10-16T17:55:21;42.17;;;19.40;;
46721;SDS011;32455;43.430;23.136;2022-10-16T17:58:06;33.47;;;16.90;;
46721;SDS011;32455;43.430;23.136;2022-10-16T18:00:51;26.90;;;13.65;;
46721;SDS011;32455;43.430;23.136;2022-10-16T18:03:37;18.40;;;11.57;;
46721;SDS011;32455;43.430;23.136;2022-10-16T18:06:22;18.45;;;10.75;;
46721;SDS011;32455;43.430;23.136;2022-10-16T18:09:09;13.25;;;8.45;;
46721;SDS011;32455;43.430;23.136;2022-10-16T18:11:54;10.93;;;6.57;;
46721;SDS011;32455;43.430;23.136;2022-10-16T18:14:46;8.93;;;6.20;;
46721;SDS011;32455;43.430;23.136;2022-10-16T18:17:34;5.93;;;5.32;;
46721;SDS011;32455;43.430;23.136;2022-10-16T18:20:23;5.40;;;4.75;;
46721;SDS011;32455;43.430;23.136;2022-10-16T18:23:07;10.65;;;5.38;;
46721;SDS011;32455;43.430;23.136;2022-10-16T18:25:52;13.27;;;4.72;;
46721;SDS011;32455;43.430;23.136;2022-10-16T18:28:38;6.70;;;4.72;;
46721;SDS011;32455;43.430;23.136;2022-10-16T18:31:24;8.52;;;5.43;;